Time;durP1;ratioP1;P1;durP2;ratioP2;P2;SDS_P1;SDS_P2;PMS_P1;PMS_P2;Temp;Humidity;BMP_temperature;BMP_pressure;BME280_temperature;BME280_humidity;BME280_pressure;Samples;Min_cycle;Max_cycle;Signal;HPM_P1;HPM_P2
2022/03/02 00:02:20;;;;;;;0.50;0.40;;;5.60;99.90;;;;;;5035137;28;20219;-79
2022/03/02 00:04:46;;;;;;;0.50;0.40;;;5.50;99.90;;;;;;5038392;28;20229;-79
2022/03/02 00:07:15;;;;;;;0.50;0.40;;;5.40;99.50;;;;;;5040700;28;20572;-78
2022/03/02 00:09:41;;;;;;;0.50;0.40;;;5.40;99.90;;;;;;5040611;28;20611;-80
2022/03/02 00:12:08;;;;;;;0.50;0.40;;;5.30;99.90;;;;;;5041273;28;20284;-80
2022/03/02 00:14:35;;;;;;;5.53;4.10;;;5.30;99.90;;;;;;5040638;28;20245;-79
2022/03/02 00:17:02;;;;;;;0.50;0.40;;;5.30;99.90;;;;;;5040648;28;20196;-79
2022/03/02 00:19:28;;;;;;;3.20;3.05;;;5.30;98.10;;;;;;5040250;28;20199;-80
2022/03/02 00:21:55;;;;;;;0.50;0.40;;;5.30;96.50;;;;;;5038099;28;20218;-79
2022/03/02 00:24:23;;;;;;;0.50;0.40;;;5.20;97.20;;;;;;5041064;28;20237;-79
2022/03/02 00:26:50;;;;;;;0.50;0.40;;;5.20;99.90;;;;;;5040316;28;20206;-80
2022/03/02 00:29:16;;;;;;;0.50;0.40;;;5.20;99.90;;;;;;5039986;28;20203;-79
2022/03/02 00:31:44;;;;;;;0.50;0.40;;;5.30;99.90;;;;;;5040644;28;20226;-81
2022/03/02 00:34:10;;;;;;;0.50;0.40;;;5.30;99.90;;;;;;5041053;28;20680;-79
2022/03/02 00:36:37;;;;;;;0.50;0.40;;;5.20;99.90;;;;;;5040817;28;20259;-79
2022/03/02 00:39:04;;;;;;;0.50;0.40;;;5.20;99.90;;;;;;5040039;28;20625;-80
2022/03/02 00:41:33;;;;;;;0.50;0.40;;;5.20;99.90;;;;;;5040470;28;20215;-79
2022/03/02 00:43:59;;;;;;;0.50;0.40;;;5.10;99.90;;;;;;5040430;28;20215;-79
2022/03/02 00:46:29;;;;;;;0.50;0.40;;;5.00;99.90;;;;;;5038891;28;20199;-79
2022/03/02 00:48:56;;;;;;;0.50;0.40;;;4.90;99.90;;;;;;5050228;28;20223;-78
2022/03/02 00:51:27;;;;;;;0.50;0.40;;;4.80;99.90;;;;;;5044940;28;20280;-76
2022/03/02 00:53:54;;;;;;;0.50;0.40;;;4.70;99.90;;;;;;5040842;28;20199;-78
2022/03/02 00:56:21;;;;;;;0.50;0.40;;;4.60;99.90;;;;;;5041279;28;20221;-76
2022/03/02 00:58:50;;;;;;;0.50;0.40;;;4.50;99.90;;;;;;5040009;28;20194;-77
2022/03/02 01:01:16;;;;;;;0.50;0.40;;;4.40;99.90;;;;;;5040884;28;20219;-78
2022/03/02 01:03:43;;;;;;;15.60;14.95;;;4.40;99.90;;;;;;5040872;28;20219;-78
2022/03/02 01:06:10;;;;;;;0.50;0.40;;;4.30;99.90;;;;;;5040794;28;20727;-78
2022/03/02 01:08:37;;;;;;;0.50;0.40;;;4.40;99.90;;;;;;5040694;28;20554;-78
2022/03/02 01:11:04;;;;;;;0.50;0.40;;;4.40;99.90;;;;;;5039668;28;20215;-79
2022/03/02 01:13:31;;;;;;;0.50;0.40;;;4.30;99.90;;;;;;5040437;28;20198;-79
2022/03/02 01:15:59;;;;;;;0.50;0.40;;;4.30;99.90;;;;;;5038390;28;20199;-78
2022/03/02 01:18:26;;;;;;;0.50;0.40;;;4.20;99.90;;;;;;5037003;28;20218;-78
2022/03/02 01:20:52;;;;;;;0.50;0.40;;;4.10;99.90;;;;;;5036730;28;20215;-78
2022/03/02 01:23:19;;;;;;;0.50;0.40;;;4.00;99.90;;;;;;5037307;28;20215;-77
2022/03/02 01:25:46;;;;;;;0.50;0.40;;;3.90;99.90;;;;;;5037406;28;20195;-79
2022/03/02 01:28:13;;;;;;;0.50;0.40;;;3.80;99.90;;;;;;5037524;28;20199;-78
2022/03/02 01:30:39;;;;;;;0.50;0.40;;;3.70;99.90;;;;;;5036374;28;20266;-78
2022/03/02 01:33:07;;;;;;;0.50;0.40;;;3.60;99.90;;;;;;5037605;28;20199;-78
2022/03/02 01:35:34;;;;;;;0.50;0.50;;;3.60;99.90;;;;;;5037530;28;20222;-79
2022/03/02 01:38:01;;;;;;;22.25;21.20;;;3.50;99.90;;;;;;5036509;28;20257;-78
2022/03/02 01:40:28;;;;;;;0.50;0.40;;;3.50;99.90;;;;;;5036641;28;20863;-78
2022/03/02 01:42:54;;;;;;;2.22;2.13;;;3.50;99.90;;;;;;5036846;28;20223;-78
2022/03/02 01:45:22;;;;;;;0.50;0.50;;;3.50;99.90;;;;;;5037222;28;20206;-77
2022/03/02 01:47:48;;;;;;;0.50;0.40;;;3.50;99.90;;;;;;5035988;28;20298;-78
2022/03/02 01:50:17;;;;;;;0.50;0.40;;;3.60;99.90;;;;;;5036006;28;20253;-78
2022/03/02 01:52:44;;;;;;;0.50;0.40;;;3.50;99.90;;;;;;5037217;28;20180;-78
2022/03/02 01:55:13;;;;;;;0.50;0.50;;;3.50;99.90;;;;;;5037095;28;20226;-78
2022/03/02 01:57:41;;;;;;;0.50;0.40;;;3.60;99.90;;;;;;5036747;28;20199;-78
2022/03/02 02:00:09;;;;;;;0.50;0.40;;;3.60;99.90;;;;;;5036036;28;20222;-78
2022/03/02 02:02:36;;;;;;;0.50;0.50;;;3.60;99.90;;;;;;5036278;28;20223;-78
2022/03/02 02:05:03;;;;;;;0.50;0.40;;;3.70;99.90;;;;;;5036588;28;20669;-78
2022/03/02 02:07:31;;;;;;;0.50;0.40;;;3.60;99.90;;;;;;5036732;28;20210;-78
2022/03/02 02:09:58;;;;;;;0.50;0.40;;;3.60;99.90;;;;;;5036620;28;20195;-78
2022/03/02 02:12:25;;;;;;;0.50;0.40;;;3.60;99.90;;;;;;5037802;28;20223;-78
2022/03/02 02:14:52;;;;;;;0.50;0.40;;;3.60;99.90;;;;;;5037104;28;20618;-78
2022/03/02 02:17:19;;;;;;;1.88;1.77;;;3.50;99.90;;;;;;5036674;28;20203;-78
2022/03/02 02:19:45;;;;;;;0.50;0.40;;;3.50;99.90;;;;;;5036485;28;20723;-79
2022/03/02 02:22:13;;;;;;;0.50;0.40;;;3.50;99.90;;;;;;5037335;28;20227;-78
2022/03/02 02:24:40;;;;;;;0.50;0.40;;;3.50;99.90;;;;;;5037717;28;20215;-78
2022/03/02 02:27:07;;;;;;;0.50;0.40;;;3.40;99.90;;;;;;5038024;28;20210;-78
2022/03/02 02:29:37;;;;;;;0.50;0.40;;;3.40;99.90;;;;;;5035933;28;20294;-78
2022/03/02 02:32:04;;;;;;;0.50;0.50;;;3.40;99.90;;;;;;5038075;28;20708;-78
2022/03/02 02:34:31;;;;;;;0.50;0.40;;;3.50;99.90;;;;;;5037257;28;20543;-78
2022/03/02 02:36:59;;;;;;;0.50;0.40;;;3.50;99.90;;;;;;5037312;28;20203;-80
2022/03/02 02:39:27;;;;;;;0.50;0.40;;;3.50;99.90;;;;;;5036779;28;20619;-76
2022/03/02 02:41:55;;;;;;;0.50;0.40;;;3.50;99.90;;;;;;5037534;28;20219;-79
2022/03/02 02:44:21;;;;;;;0.50;0.40;;;3.50;99.90;;;;;;5036857;28;20226;-77
2022/03/02 02:46:48;;;;;;;0.50;0.40;;;3.50;99.90;;;;;;5038784;28;20205;-78
2022/03/02 02:49:15;;;;;;;0.50;0.40;;;3.50;99.90;;;;;;5035334;28;20298;-77
2022/03/02 02:51:41;;;;;;;0.50;0.40;;;3.50;99.90;;;;;;5035825;28;20721;-78
2022/03/02 02:54:08;;;;;;;0.50;0.40;;;3.50;99.90;;;;;;5035667;28;20244;-78
2022/03/02 02:56:36;;;;;;;0.50;0.40;;;3.60;99.90;;;;;;5034925;28;20195;-78
2022/03/02 02:59:03;;;;;;;0.50;0.40;;;3.60;99.90;;;;;;5035039;28;20252;-78
2022/03/02 03:01:30;;;;;;;0.50;0.40;;;3.60;99.90;;;;;;5042177;28;20219;-78
2022/03/02 03:03:57;;;;;;;0.50;0.40;;;3.70;99.90;;;;;;5043186;28;20218;-78
2022/03/02 03:06:24;;;;;;;0.50;0.40;;;3.70;99.90;;;;;;5035511;28;20256;-77
2022/03/02 03:08:51;;;;;;;0.50;0.40;;;3.70;99.90;;;;;;5034899;28;20199;-77
2022/03/02 03:11:19;;;;;;;0.50;0.50;;;3.80;99.90;;;;;;5035230;28;20212;-77
2022/03/02 03:13:47;;;;;;;0.50;0.40;;;3.80;99.90;;;;;;5035441;28;20198;-78
2022/03/02 03:16:14;;;;;;;0.50;0.40;;;3.90;99.90;;;;;;5035431;28;20697;-79
2022/03/02 03:18:40;;;;;;;9.13;8.52;;;3.90;99.90;;;;;;5035886;28;20665;-78
2022/03/02 03:21:07;;;;;;;0.50;0.40;;;3.90;99.90;;;;;;5033686;28;20226;-78
2022/03/02 03:23:34;;;;;;;0.50;0.40;;;4.00;99.90;;;;;;5034799;28;20758;-78
2022/03/02 03:26:01;;;;;;;0.50;0.40;;;4.00;99.90;;;;;;5035424;28;20199;-79
2022/03/02 03:28:28;;;;;;;0.50;0.40;;;4.10;99.90;;;;;;5035433;28;20205;-77
2022/03/02 03:30:57;;;;;;;0.50;0.40;;;4.10;99.90;;;;;;5034632;28;20313;-78
2022/03/02 03:33:24;;;;;;;0.50;0.40;;;4.00;99.90;;;;;;5035045;28;20194;-78
2022/03/02 03:35:51;;;;;;;0.50;0.40;;;4.00;99.90;;;;;;5035284;28;20213;-78
2022/03/02 03:38:18;;;;;;;0.50;0.40;;;4.00;99.90;;;;;;5035349;28;20195;-79
2022/03/02 03:40:44;;;;;;;0.68;0.68;;;4.00;99.90;;;;;;5033846;28;20220;-78
2022/03/02 03:43:11;;;;;;;0.50;0.40;;;4.00;99.90;;;;;;5035109;28;20195;-78
2022/03/02 03:45:37;;;;;;;0.50;0.40;;;4.00;99.90;;;;;;5035072;28;20763;-78
2022/03/02 03:48:06;;;;;;;1.40;1.30;;;4.00;99.90;;;;;;5032510;28;20677;-78
2022/03/02 03:50:33;;;;;;;0.50;0.40;;;4.00;99.90;;;;;;5034203;28;20204;-78
2022/03/02 03:52:59;;;;;;;0.50;0.40;;;4.00;99.90;;;;;;5035572;28;20183;-78
2022/03/02 03:55:26;;;;;;;0.65;0.65;;;4.00;99.90;;;;;;5034536;28;20342;-77
2022/03/02 03:57:53;;;;;;;0.50;0.40;;;4.00;99.90;;;;;;5035145;28;20616;-78
2022/03/02 04:00:20;;;;;;;0.60;0.40;;;4.00;99.90;;;;;;5033804;28;20199;-78
2022/03/02 04:02:47;;;;;;;0.70;0.70;;;3.90;99.90;;;;;;5035286;28;20198;-79
2022/03/02 04:05:16;;;;;;;0.50;0.40;;;3.80;99.90;;;;;;5034288;28;20219;-78
2022/03/02 04:07:44;;;;;;;0.50;0.40;;;3.70;99.90;;;;;;5032413;28;20207;-77
2022/03/02 04:10:13;;;;;;;0.50;0.40;;;3.70;99.90;;;;;;5032096;28;20230;-77
2022/03/02 04:12:40;;;;;;;0.50;0.40;;;3.60;99.90;;;;;;5033036;28;20195;-77
2022/03/02 04:15:08;;;;;;;0.50;0.40;;;3.50;99.90;;;;;;5033030;28;20204;-79
2022/03/02 04:17:35;;;;;;;0.50;0.40;;;3.40;99.90;;;;;;5035017;28;20194;-78
2022/03/02 04:20:01;;;;;;;0.50;0.50;;;3.30;99.90;;;;;;5033639;28;20206;-78
2022/03/02 04:22:29;;;;;;;0.50;0.40;;;3.20;99.90;;;;;;5034471;28;20221;-78
2022/03/02 04:24:56;;;;;;;0.50;0.40;;;3.10;99.90;;;;;;5033944;28;20218;-78
2022/03/02 04:27:23;;;;;;;0.50;0.40;;;3.10;99.90;;;;;;5034096;28;20200;-78
2022/03/02 04:29:50;;;;;;;0.50;0.50;;;3.10;99.90;;;;;;5032029;28;20252;-77
2022/03/02 04:32:17;;;;;;;0.50;0.40;;;3.00;99.90;;;;;;5033439;28;20733;-78
2022/03/02 04:34:43;;;;;;;0.50;0.40;;;2.90;99.90;;;;;;5033847;28;20198;-77
2022/03/02 04:37:10;;;;;;;0.50;0.40;;;2.80;99.90;;;;;;5033738;28;20688;-77
2022/03/02 04:39:38;;;;;;;0.50;0.40;;;2.70;99.90;;;;;;5033753;28;20206;-78
2022/03/02 04:42:05;;;;;;;0.50;0.40;;;2.60;99.90;;;;;;5033770;28;20229;-78
2022/03/02 04:44:32;;;;;;;0.50;0.40;;;2.60;99.90;;;;;;5033776;28;20624;-78
2022/03/02 04:46:58;;;;;;;0.50;0.40;;;2.50;99.90;;;;;;5033559;28;20600;-78
2022/03/02 04:49:25;;;;;;;0.50;0.40;;;2.40;99.90;;;;;;5033330;28;20726;-79
2022/03/02 04:51:52;;;;;;;0.50;0.40;;;2.40;99.90;;;;;;5034755;28;20233;-77
2022/03/02 04:57:06;;;;;;;0.50;0.40;;;2.30;99.90;;;;;;5036271;28;20569;-79
2022/03/02 04:59:34;;;;;;;0.50;0.40;;;2.30;99.90;;;;;;5035908;28;20196;-78
2022/03/02 05:02:01;;;;;;;0.52;0.52;;;2.30;99.90;;;;;;5036786;28;20692;-79
2022/03/02 05:04:27;;;;;;;0.50;0.40;;;2.20;99.90;;;;;;5036747;28;20584;-79
2022/03/02 05:06:54;;;;;;;0.50;0.40;;;2.30;99.90;;;;;;5037528;28;20209;-78
2022/03/02 05:09:21;;;;;;;0.50;0.50;;;2.20;99.90;;;;;;5036457;28;20198;-79
2022/03/02 05:11:47;;;;;;;0.50;0.40;;;2.20;99.90;;;;;;5037987;28;20222;-79
2022/03/02 05:14:15;;;;;;;0.50;0.40;;;2.20;99.90;;;;;;5041523;28;20200;-78
2022/03/02 05:16:42;;;;;;;0.50;0.40;;;2.20;99.90;;;;;;5045826;28;20661;-79
2022/03/02 05:19:09;;;;;;;0.50;0.40;;;2.20;99.90;;;;;;5038842;28;20569;-79
2022/03/02 05:21:36;;;;;;;0.50;0.40;;;2.20;99.90;;;;;;5039423;28;20218;-79
2022/03/02 05:24:02;;;;;;;0.50;0.40;;;2.20;99.90;;;;;;5039184;28;20265;-79
2022/03/02 05:26:29;;;;;;;0.50;0.40;;;2.10;99.90;;;;;;5038485;28;20229;-79
2022/03/02 05:28:56;;;;;;;0.50;0.40;;;2.10;99.90;;;;;;5021610;28;20211;-78
2022/03/02 05:31:24;;;;;;;0.50;0.50;;;2.10;99.90;;;;;;5037487;28;20260;-79
2022/03/02 05:33:52;;;;;;;0.50;0.40;;;2.00;99.90;;;;;;5037463;28;20206;-78
2022/03/02 05:36:19;;;;;;;0.50;0.40;;;1.90;99.90;;;;;;5037083;28;20474;-79
2022/03/02 05:38:45;;;;;;;0.50;0.40;;;1.90;99.90;;;;;;5037170;28;20199;-78
2022/03/02 05:41:12;;;;;;;0.50;0.40;;;1.80;99.90;;;;;;5035876;28;20222;-78
2022/03/02 05:43:39;;;;;;;0.50;0.40;;;1.90;99.90;;;;;;5037452;28;20877;-79
2022/03/02 05:46:06;;;;;;;0.50;0.40;;;1.80;99.90;;;;;;5035078;28;20292;-79
2022/03/02 05:48:34;;;;;;;0.50;0.40;;;1.80;99.90;;;;;;5037663;28;20198;-79
2022/03/02 05:51:00;;;;;;;0.50;0.50;;;1.70;99.90;;;;;;5036581;28;20632;-78
2022/03/02 05:53:27;;;;;;;0.50;0.40;;;1.70;99.90;;;;;;5036795;28;20409;-79
2022/03/02 05:55:54;;;;;;;0.50;0.40;;;1.70;99.90;;;;;;5037846;28;20876;-78
2022/03/02 05:58:20;;;;;;;0.50;0.40;;;1.60;99.90;;;;;;5036377;28;20223;-80
2022/03/02 06:00:47;;;;;;;0.50;0.40;;;1.60;99.90;;;;;;5037259;28;20225;-81
2022/03/02 06:03:14;;;;;;;0.50;0.40;;;1.70;99.90;;;;;;5037188;28;20688;-80
2022/03/02 06:05:42;;;;;;;0.52;0.40;;;1.80;99.90;;;;;;5037743;28;20222;-80
2022/03/02 06:08:10;;;;;;;1.67;1.58;;;1.70;99.90;;;;;;5037281;28;20205;-80
2022/03/02 06:10:38;;;;;;;0.50;0.40;;;1.70;99.90;;;;;;5037190;28;20229;-80
2022/03/02 06:13:05;;;;;;;0.50;0.40;;;1.80;99.90;;;;;;5037534;28;20211;-80
2022/03/02 06:15:33;;;;;;;0.50;0.40;;;1.70;99.90;;;;;;5037620;28;20268;-80
2022/03/02 06:18:02;;;;;;;0.50;0.40;;;1.70;99.90;;;;;;5039323;28;20221;-79
2022/03/02 06:20:30;;;;;;;0.50;0.40;;;1.60;99.90;;;;;;5033663;28;20206;-77
2022/03/02 06:22:59;;;;;;;0.50;0.40;;;1.60;99.90;;;;;;5033833;28;20207;-77
2022/03/02 06:25:26;;;;;;;2.33;2.15;;;1.60;99.90;;;;;;5033785;28;20279;-77
2022/03/02 06:27:53;;;;;;;0.50;0.40;;;1.70;99.90;;;;;;5032178;28;20207;-77
2022/03/02 06:30:20;;;;;;;0.50;0.40;;;1.70;99.90;;;;;;5035464;28;20464;-78
2022/03/02 06:32:47;;;;;;;0.50;0.40;;;1.70;99.90;;;;;;5039103;28;20206;-78
2022/03/02 06:35:14;;;;;;;0.50;0.40;;;1.70;99.90;;;;;;5035916;28;20205;-79
2022/03/02 06:37:40;;;;;;;0.50;0.40;;;1.70;99.90;;;;;;5035380;28;20789;-78
2022/03/02 06:40:11;;;;;;;0.50;0.40;;;1.70;99.90;;;;;;5035262;28;20406;-78
2022/03/02 06:42:51;;;;;;;0.50;0.40;;;1.70;99.90;;;;;;5035842;28;20221;-78
2022/03/02 06:45:24;;;;;;;2.03;1.95;;;1.80;99.90;;;;;;5036106;28;20210;-78
2022/03/02 06:47:58;;;;;;;0.60;0.55;;;1.80;99.90;;;;;;5033137;28;20202;-78
2022/03/02 06:50:27;;;;;;;0.50;0.40;;;2.00;99.90;;;;;;5033430;28;20182;-78
2022/03/02 06:52:55;;;;;;;2.25;2.15;;;2.00;99.90;;;;;;5034782;28;20186;-78
2022/03/02 06:55:26;;;;;;;0.50;0.40;;;2.10;99.90;;;;;;5035309;28;20202;-76
2022/03/02 06:57:56;;;;;;;0.50;0.40;;;2.20;99.90;;;;;;5036187;28;20186;-77
2022/03/02 07:00:23;;;;;;;0.50;0.40;;;2.20;99.90;;;;;;5039592;28;20616;-77
2022/03/02 07:02:52;;;;;;;0.50;0.40;;;2.30;99.90;;;;;;5036860;28;20263;-77
2022/03/02 07:05:20;;;;;;;0.50;0.40;;;2.30;99.90;;;;;;5035290;28;20620;-77
2022/03/02 07:07:48;;;;;;;0.50;0.40;;;2.50;99.90;;;;;;5033758;28;20208;-78
2022/03/02 07:10:15;;;;;;;0.50;0.40;;;2.70;99.90;;;;;;5033479;28;20252;-78
2022/03/02 07:12:44;;;;;;;0.50;0.40;;;2.80;99.90;;;;;;5033466;28;20195;-78
2022/03/02 07:15:12;;;;;;;0.50;0.40;;;2.90;99.90;;;;;;5021639;28;20290;-76
2022/03/02 07:17:39;;;;;;;1.73;1.63;;;3.10;99.90;;;;;;5029455;28;20597;-78
2022/03/02 07:20:08;;;;;;;0.50;0.40;;;3.20;99.90;;;;;;5032694;28;20199;-77
2022/03/02 07:22:38;;;;;;;0.50;0.40;;;3.20;99.90;;;;;;5034902;28;20222;-77
2022/03/02 07:25:07;;;;;;;0.50;0.40;;;3.30;99.90;;;;;;5032794;28;20238;-78
2022/03/02 07:27:39;;;;;;;0.50;0.40;;;3.30;99.90;;;;;;5035595;28;20205;-78
2022/03/02 07:30:10;;;;;;;0.50;0.40;;;3.40;99.90;;;;;;5034363;28;20684;-78
2022/03/02 07:32:41;;;;;;;0.50;0.40;;;3.40;99.90;;;;;;5033200;28;20228;-79
2022/03/02 07:35:08;;;;;;;0.50;0.40;;;3.50;99.90;;;;;;5037996;28;20191;-79
2022/03/02 07:37:36;;;;;;;0.50;0.40;;;3.50;99.90;;;;;;5033833;28;20584;-79
2022/03/02 07:40:04;;;;;;;0.50;0.50;;;3.60;99.90;;;;;;5032116;28;20644;-78
2022/03/02 07:42:32;;;;;;;0.50;0.40;;;4.10;99.90;;;;;;5032528;28;20223;-78
2022/03/02 07:44:59;;;;;;;0.50;0.40;;;4.60;99.90;;;;;;5033185;28;20215;-79
2022/03/02 07:47:27;;;;;;;0.50;0.40;;;5.10;99.90;;;;;;5031259;28;20199;-75
2022/03/02 07:49:54;;;;;;;0.50;0.40;;;5.40;99.90;;;;;;5033997;28;20195;-78
2022/03/02 07:52:25;;;;;;;0.50;0.40;;;5.50;99.90;;;;;;5034109;28;20227;-76
2022/03/02 07:54:57;;;;;;;0.50;0.40;;;5.60;99.90;;;;;;5027970;28;20222;-77
2022/03/02 07:57:25;;;;;;;0.50;0.50;;;5.80;99.90;;;;;;5023615;28;20207;-78
2022/03/02 07:59:53;;;;;;;0.50;0.40;;;6.40;99.90;;;;;;5011984;28;20196;-76
2022/03/02 08:02:22;;;;;;;0.60;0.60;;;7.80;99.90;;;;;;5012081;28;20715;-76
2022/03/02 08:04:54;;;;;;;0.50;0.40;;;9.70;99.90;;;;;;5011392;28;20209;-77
2022/03/02 08:07:21;;;;;;;1.58;1.25;;;11.00;97.80;;;;;;5011929;28;20768;-76
2022/03/02 08:09:48;;;;;;;0.50;0.40;;;11.80;90.10;;;;;;5011074;28;20257;-77
2022/03/02 08:12:15;;;;;;;0.50;0.40;;;12.90;81.20;;;;;;5011696;28;20223;-77
2022/03/02 08:14:43;;;;;;;0.50;0.40;;;14.10;72.70;;;;;;5011903;28;20211;-77
2022/03/02 08:17:10;;;;;;;0.50;0.40;;;15.50;69.90;;;;;;5012296;28;20852;-77
2022/03/02 08:19:36;;;;;;;0.50;0.40;;;17.10;62.00;;;;;;5011407;28;20446;-77
2022/03/02 08:22:08;;;;;;;0.50;0.30;;;18.00;57.50;;;;;;5011356;28;20520;-76
2022/03/02 08:24:38;;;;;;;0.50;0.30;;;19.20;55.00;;;;;;5011857;28;20450;-77
2022/03/02 08:27:05;;;;;;;1.07;1.07;;;20.30;52.70;;;;;;5016026;28;20443;-77
2022/03/02 08:29:33;;;;;;;0.50;0.30;;;21.20;51.50;;;;;;5022828;28;20826;-77
2022/03/02 08:32:02;;;;;;;0.50;0.30;;;22.30;51.00;;;;;;5032606;28;20838;-77
2022/03/02 08:34:31;;;;;;;0.50;0.30;;;23.10;48.90;;;;;;5035506;28;20492;-77
2022/03/02 08:36:58;;;;;;;0.50;0.50;;;23.90;46.60;;;;;;5035476;28;20440;-76
2022/03/02 08:39:26;;;;;;;0.50;0.30;;;24.20;42.80;;;;;;5034940;28;20429;-77
2022/03/02 08:41:54;;;;;;;0.50;0.30;;;24.10;42.30;;;;;;5035307;28;20476;-78
2022/03/02 08:44:22;;;;;;;0.50;0.40;;;24.60;42.40;;;;;;5034658;28;20854;-77
2022/03/02 08:46:49;;;;;;;0.50;0.30;;;25.40;42.50;;;;;;5033664;28;20477;-78
2022/03/02 08:49:17;;;;;;;0.50;0.40;;;26.00;40.30;;;;;;5034485;28;20450;-77
2022/03/02 08:51:44;;;;;;;1.27;1.17;;;26.40;39.10;;;;;;5023866;28;20490;-78
2022/03/02 08:54:13;;;;;;;0.50;0.50;;;26.60;38.80;;;;;;5031634;28;20445;-77
2022/03/02 08:56:42;;;;;;;0.50;0.30;;;26.90;38.30;;;;;;5034387;28;20528;-77
2022/03/02 08:59:12;;;;;;;1.03;0.70;;;27.60;39.10;;;;;;5033750;28;20936;-78
2022/03/02 09:01:43;;;;;;;2.93;2.47;;;28.40;37.50;;;;;;5034523;28;20464;-78
2022/03/02 09:04:15;;;;;;;0.50;0.30;;;28.50;36.80;;;;;;5034910;28;20422;-77
2022/03/02 09:06:42;;;;;;;0.50;0.30;;;27.90;36.50;;;;;;5033481;28;20469;-77
2022/03/02 09:09:09;;;;;;;1.67;1.57;;;27.80;37.50;;;;;;5032886;28;20866;-76
2022/03/02 09:11:37;;;;;;;0.50;0.30;;;28.30;37.60;;;;;;5033211;28;20457;-76
2022/03/02 09:14:05;;;;;;;0.50;0.30;;;28.80;38.60;;;;;;5034580;28;20954;-76
2022/03/02 09:16:32;;;;;;;1.87;1.73;;;29.10;36.70;;;;;;5034554;28;20445;-76
2022/03/02 09:18:59;;;;;;;0.50;0.30;;;29.30;36.30;;;;;;5033473;28;21019;-74
2022/03/02 09:21:27;;;;;;;0.50;0.30;;;29.00;35.90;;;;;;5033570;28;20456;-76
2022/03/02 09:23:55;;;;;;;0.50;0.30;;;29.00;35.90;;;;;;5034368;28;20808;-76
2022/03/02 09:26:23;;;;;;;0.50;0.30;;;28.90;34.30;;;;;;5034225;28;20478;-76
2022/03/02 09:28:52;;;;;;;1.03;0.60;;;28.60;35.00;;;;;;5033340;28;20515;-75
2022/03/02 09:31:21;;;;;;;0.60;0.60;;;28.40;35.70;;;;;;5033827;28;20603;-75
2022/03/02 09:33:50;;;;;;;0.90;0.60;;;28.80;36.60;;;;;;5034190;28;20446;-76
2022/03/02 09:36:21;;;;;;;0.50;0.40;;;29.30;36.50;;;;;;5033776;28;20894;-76
2022/03/02 09:38:50;;;;;;;2.50;2.40;;;29.80;35.00;;;;;;5032904;28;20824;-74
2022/03/02 09:41:24;;;;;;;0.50;0.30;;;29.50;34.30;;;;;;5033786;28;20462;-76
2022/03/02 09:43:57;;;;;;;0.50;0.30;;;29.60;36.60;;;;;;5033708;28;20838;-77
2022/03/02 09:46:32;;;;;;;1.47;1.00;;;29.60;35.40;;;;;;5031403;28;20827;-76
2022/03/02 09:49:03;;;;;;;0.50;0.30;;;29.80;34.00;;;;;;5032938;28;20430;-74
2022/03/02 09:51:33;;;;;;;0.50;0.40;;;29.10;33.90;;;;;;5033445;28;20501;-76
2022/03/02 09:54:02;;;;;;;0.50;0.30;;;28.90;34.00;;;;;;5033624;28;20492;-76
2022/03/02 09:56:31;;;;;;;0.50;0.30;;;28.20;33.50;;;;;;5033547;28;20430;-75
2022/03/02 09:59:00;;;;;;;0.50;0.30;;;27.90;34.60;;;;;;5032500;28;20918;-75
2022/03/02 10:01:32;;;;;;;0.50;0.40;;;27.90;34.80;;;;;;5033145;28;20678;-76
2022/03/02 10:04:11;;;;;;;1.07;0.60;;;26.80;33.40;;;;;;5033196;28;20444;-76
2022/03/02 10:06:42;;;;;;;0.90;0.83;;;25.90;33.80;;;;;;5033251;28;21017;-76
2022/03/02 10:09:10;;;;;;;3.80;2.83;;;24.80;33.60;;;;;;5032699;28;20430;-76
2022/03/02 10:11:40;;;;;;;0.50;0.40;;;23.80;34.60;;;;;;5033578;28;20523;-76
2022/03/02 10:14:07;;;;;;;0.50;0.43;;;23.40;35.60;;;;;;5033004;28;20450;-76
2022/03/02 10:16:42;;;;;;;0.50;0.30;;;22.60;35.40;;;;;;5033641;28;20438;-75
2022/03/02 10:19:15;;;;;;;0.50;0.30;;;21.60;36.00;;;;;;5032481;28;20446;-76
2022/03/02 10:21:46;;;;;;;1.13;1.00;;;20.80;36.90;;;;;;5033454;28;20450;-76
2022/03/02 10:24:20;;;;;;;0.50;0.30;;;20.40;37.40;;;;;;5032923;28;20437;-76
2022/03/02 10:26:51;;;;;;;1.00;1.00;;;20.20;38.90;;;;;;5032929;28;21068;-75
2022/03/02 10:29:31;;;;;;;0.50;0.30;;;20.10;37.70;;;;;;5032428;28;20442;-76
2022/03/02 10:32:06;;;;;;;2.40;2.30;;;20.20;37.70;;;;;;5032023;28;21065;-76
2022/03/02 10:34:35;;;;;;;0.60;0.40;;;20.20;38.40;;;;;;5032470;28;20425;-76
2022/03/02 10:37:29;;;;;;;0.50;0.30;;;20.20;37.70;;;;;;5032717;28;20438;-75
2022/03/02 10:40:06;;;;;;;0.50;0.40;;;19.70;37.90;;;;;;5032194;28;20507;-75
2022/03/02 10:42:36;;;;;;;0.50;0.40;;;19.70;37.90;;;;;;5032348;28;20551;-76
2022/03/02 10:45:08;;;;;;;0.60;0.60;;;19.70;38.60;;;;;;5032656;28;20516;-76
2022/03/02 10:47:41;;;;;;;14.83;8.23;;;20.00;38.70;;;;;;5031662;28;21012;-75
2022/03/02 10:50:09;;;;;;;1.27;1.17;;;20.30;37.80;;;;;;5031546;28;20489;-76
2022/03/02 10:52:39;;;;;;;0.70;0.53;;;20.10;36.90;;;;;;5032538;28;20859;-76
2022/03/02 10:55:09;;;;;;;0.60;0.50;;;20.00;38.30;;;;;;5032057;28;20437;-76
2022/03/02 10:57:36;;;;;;;1.00;1.00;;;20.70;37.40;;;;;;5032208;28;20867;-75
2022/03/02 11:00:10;;;;;;;1.77;1.60;;;20.90;36.90;;;;;;5031413;28;20457;-76
2022/03/02 11:02:41;;;;;;;5.80;0.93;;;21.00;37.40;;;;;;5032182;28;20497;-76
2022/03/02 11:05:10;;;;;;;0.90;0.90;;;21.50;36.20;;;;;;5032383;28;20453;-76
2022/03/02 11:07:38;;;;;;;0.60;0.60;;;21.60;37.30;;;;;;5032220;28;20639;-76
2022/03/02 11:10:09;;;;;;;1.90;1.80;;;22.70;37.00;;;;;;5031150;28;21076;-76
2022/03/02 11:12:41;;;;;;;1.87;1.60;;;23.50;35.00;;;;;;5032392;28;20454;-75
2022/03/02 11:15:08;;;;;;;1.00;0.60;;;23.10;34.20;;;;;;5032029;28;20908;-76
2022/03/02 11:17:36;;;;;;;1.50;1.40;;;22.40;34.80;;;;;;5032103;28;20488;-76
2022/03/02 11:20:09;;;;;;;0.50;0.40;;;23.30;35.20;;;;;;5031757;28;20529;-76
2022/03/02 11:22:37;;;;;;;0.50;0.40;;;23.70;36.10;;;;;;5031507;28;20465;-76
2022/03/02 11:25:06;;;;;;;0.50;0.30;;;23.20;34.60;;;;;;5032336;28;20438;-76
2022/03/02 11:27:38;;;;;;;0.50;0.30;;;22.80;35.00;;;;;;5032184;28;20922;-75
2022/03/02 11:30:11;;;;;;;1.10;1.00;;;22.70;34.70;;;;;;5031603;28;20423;-75
2022/03/02 11:32:41;;;;;;;0.50;0.50;;;22.70;35.20;;;;;;5031426;28;20998;-76
2022/03/02 11:35:13;;;;;;;0.50;0.30;;;23.60;36.20;;;;;;5032216;28;20445;-76
2022/03/02 11:37:41;;;;;;;0.50;0.30;;;23.60;36.00;;;;;;5031832;28;20438;-75
2022/03/02 11:40:10;;;;;;;0.60;0.40;;;24.00;34.90;;;;;;5030798;28;20449;-76
2022/03/02 11:42:38;;;;;;;0.50;0.30;;;23.80;35.50;;;;;;5031408;28;20820;-76
2022/03/02 11:45:08;;;;;;;0.50;0.30;;;24.10;34.90;;;;;;5031228;28;20446;-76
2022/03/02 11:47:37;;;;;;;0.60;0.40;;;23.90;35.00;;;;;;5030824;28;20473;-76
2022/03/02 11:50:05;;;;;;;0.50;0.30;;;24.40;34.80;;;;;;5030697;28;20499;-76
2022/03/02 11:52:35;;;;;;;1.23;0.83;;;24.10;34.10;;;;;;5031605;28;20469;-77
2022/03/02 11:55:05;;;;;;;2.20;1.83;;;24.40;34.70;;;;;;5031697;28;20508;-76
2022/03/02 11:57:39;;;;;;;0.50;0.30;;;24.80;33.80;;;;;;5031589;28;20843;-75
2022/03/02 12:00:10;;;;;;;0.50;0.30;;;25.20;35.00;;;;;;5030136;28;20978;-75
2022/03/02 12:02:42;;;;;;;0.50;0.30;;;26.00;34.00;;;;;;5030800;28;20545;-76
2022/03/02 12:05:10;;;;;;;2.93;2.73;;;25.80;33.60;;;;;;5031583;28;20426;-75
2022/03/02 12:07:40;;;;;;;0.70;0.60;;;25.00;32.30;;;;;;5031587;28;20480;-75
2022/03/02 12:10:17;;;;;;;1.33;1.23;;;24.00;33.40;;;;;;5031075;28;20446;-76
2022/03/02 12:12:44;;;;;;;0.93;0.93;;;24.30;34.00;;;;;;5031174;28;20892;-76
2022/03/02 12:15:11;;;;;;;0.63;0.63;;;24.20;33.80;;;;;;5030964;28;20978;-76
2022/03/02 12:17:39;;;;;;;0.60;0.40;;;24.10;34.40;;;;;;5031470;28;20503;-76
2022/03/02 12:20:08;;;;;;;0.50;0.30;;;24.10;32.70;;;;;;5030730;28;20446;-75
2022/03/02 12:22:38;;;;;;;0.70;0.60;;;23.60;32.70;;;;;;5031160;28;20871;-76
2022/03/02 12:25:08;;;;;;;1.67;1.57;;;22.80;32.80;;;;;;5030849;28;21009;-76
2022/03/02 12:27:35;;;;;;;0.50;0.30;;;22.90;33.50;;;;;;5030949;28;20473;-76
2022/03/02 12:30:05;;;;;;;0.50;0.30;;;23.40;33.80;;;;;;5030540;28;20438;-75
2022/03/02 12:32:33;;;;;;;0.50;0.30;;;23.90;36.10;;;;;;5031438;28;20458;-76
2022/03/02 12:35:02;;;;;;;1.17;1.07;;;24.90;34.90;;;;;;5031555;28;20437;-77
2022/03/02 12:37:30;;;;;;;0.50;0.30;;;25.50;33.70;;;;;;5031010;28;20954;-72
2022/03/02 12:39:58;;;;;;;1.43;1.33;;;25.40;32.70;;;;;;5030136;28;20430;-76
2022/03/02 12:42:26;;;;;;;0.50;0.30;;;24.50;32.80;;;;;;5030918;28;20453;-76
2022/03/02 12:44:54;;;;;;;0.67;0.67;;;24.50;32.80;;;;;;5030606;28;20445;-76
2022/03/02 12:47:23;;;;;;;1.57;0.97;;;24.70;32.70;;;;;;5029304;28;20478;-75
2022/03/02 12:49:51;;;;;;;2.00;1.17;;;24.30;32.20;;;;;;5030055;28;20446;-76
2022/03/02 12:52:20;;;;;;;0.70;0.60;;;23.90;32.20;;;;;;5030259;28;20466;-76
2022/03/02 12:54:48;;;;;;;0.50;0.30;;;23.50;32.50;;;;;;5030784;28;20944;-76
2022/03/02 12:57:18;;;;;;;2.70;2.60;;;22.80;32.90;;;;;;5031353;28;20444;-75
2022/03/02 12:59:45;;;;;;;0.60;0.50;;;22.20;33.90;;;;;;5031511;28;20422;-76
2022/03/02 13:02:16;;;;;;;5.30;1.47;;;22.60;34.10;;;;;;5031411;28;20466;-76